sensor_id;sensor_type;location;lat;lon;timestamp;temperature;humidity
78522;SHT31;67819;51.972;5.678;2024-02-26T00:00:03;7.1;72.3
78522;SHT31;67819;51.972;5.678;2024-02-26T00:02:35;7.1;72.3
78522;SHT31;67819;51.972;5.678;2024-02-26T00:05:08;7.1;72.3
78522;SHT31;67819;51.972;5.678;2024-02-26T00:07:36;7.1;72.3
78522;SHT31;67819;51.972;5.678;2024-02-26T00:10:06;7.1;72.1
78522;SHT31;67819;51.972;5.678;2024-02-26T00:12:35;7.1;72.0
78522;SHT31;67819;51.972;5.678;2024-02-26T00:15:06;7.1;71.9
78522;SHT31;67819;51.972;5.678;2024-02-26T00:17:35;7.2;71.8
78522;SHT31;67819;51.972;5.678;2024-02-26T00:20:04;7.1;71.8
78522;SHT31;67819;51.972;5.678;2024-02-26T00:22:35;7.1;71.6
78522;SHT31;67819;51.972;5.678;2024-02-26T00:25:04;7.1;71.7
78522;SHT31;67819;51.972;5.678;2024-02-26T00:27:33;7.1;71.6
78522;SHT31;67819;51.972;5.678;2024-02-26T00:30:02;7.1;71.6
78522;SHT31;67819;51.972;5.678;2024-02-26T00:32:30;7.1;71.5
78522;SHT31;67819;51.972;5.678;2024-02-26T00:34:59;7.1;71.6
78522;SHT31;67819;51.972;5.678;2024-02-26T00:37:27;7.1;71.6
78522;SHT31;67819;51.972;5.678;2024-02-26T00:39:56;7.1;71.6
78522;SHT31;67819;51.972;5.678;2024-02-26T00:42:25;7.1;71.6
78522;SHT31;67819;51.972;5.678;2024-02-26T00:44:53;7.1;71.6
78522;SHT31;67819;51.972;5.678;2024-02-26T00:47:22;7.1;71.6
78522;SHT31;67819;51.972;5.678;2024-02-26T00:49:50;7.1;71.6
78522;SHT31;67819;51.972;5.678;2024-02-26T00:52:19;7.1;71.5
78522;SHT31;67819;51.972;5.678;2024-02-26T00:54:48;7.1;71.7
78522;SHT31;67819;51.972;5.678;2024-02-26T00:57:16;7.1;71.7
78522;SHT31;67819;51.972;5.678;2024-02-26T00:59:45;7.1;71.7
78522;SHT31;67819;51.972;5.678;2024-02-26T01:02:14;7.1;71.6
78522;SHT31;67819;51.972;5.678;2024-02-26T01:04:43;7.1;71.6
78522;SHT31;67819;51.972;5.678;2024-02-26T01:07:12;7.1;71.6
78522;SHT31;67819;51.972;5.678;2024-02-26T01:09:40;7.1;71.7
78522;SHT31;67819;51.972;5.678;2024-02-26T01:12:09;7.1;71.4
78522;SHT31;67819;51.972;5.678;2024-02-26T01:14:37;7.1;71.1
78522;SHT31;67819;51.972;5.678;2024-02-26T01:17:06;7.1;71.6
78522;SHT31;67819;51.972;5.678;2024-02-26T01:19:36;7.1;71.3
78522;SHT31;67819;51.972;5.678;2024-02-26T01:22:07;7.1;71.1
78522;SHT31;67819;51.972;5.678;2024-02-26T01:24:36;7.1;71.3
78522;SHT31;67819;51.972;5.678;2024-02-26T01:27:05;7.1;71.3
78522;SHT31;67819;51.972;5.678;2024-02-26T01:29:34;7.1;71.3
78522;SHT31;67819;51.972;5.678;2024-02-26T01:32:03;7.1;71.2
78522;SHT31;67819;51.972;5.678;2024-02-26T01:34:32;7.1;71.2
78522;SHT31;67819;51.972;5.678;2024-02-26T01:37:05;7.1;71.3
78522;SHT31;67819;51.972;5.678;2024-02-26T01:39:34;7.1;71.3
78522;SHT31;67819;51.972;5.678;2024-02-26T01:42:03;7.1;71.3
78522;SHT31;67819;51.972;5.678;2024-02-26T01:44:31;7.1;71.4
78522;SHT31;67819;51.972;5.678;2024-02-26T01:47:00;7.1;71.0
78522;SHT31;67819;51.972;5.678;2024-02-26T01:49:30;7.1;71.4
78522;SHT31;67819;51.972;5.678;2024-02-26T01:51:58;7.1;71.4
78522;SHT31;67819;51.972;5.678;2024-02-26T01:54:29;7.1;71.4
78522;SHT31;67819;51.972;5.678;2024-02-26T01:56:58;7.1;71.3
78522;SHT31;67819;51.972;5.678;2024-02-26T01:59:29;7.1;71.3
78522;SHT31;67819;51.972;5.678;2024-02-26T02:02:01;7.1;71.1
78522;SHT31;67819;51.972;5.678;2024-02-26T02:04:31;7.1;71.3
78522;SHT31;67819;51.972;5.678;2024-02-26T02:07:01;7.2;71.4
78522;SHT31;67819;51.972;5.678;2024-02-26T02:09:30;7.2;71.2
78522;SHT31;67819;51.972;5.678;2024-02-26T02:12:00;7.2;71.3
78522;SHT31;67819;51.972;5.678;2024-02-26T02:14:31;7.2;71.1
78522;SHT31;67819;51.972;5.678;2024-02-26T02:17:00;7.2;71.3
78522;SHT31;67819;51.972;5.678;2024-02-26T02:19:29;7.3;70.9
78522;SHT31;67819;51.972;5.678;2024-02-26T02:21:57;7.3;71.1
78522;SHT31;67819;51.972;5.678;2024-02-26T02:24:26;7.3;70.8
78522;SHT31;67819;51.972;5.678;2024-02-26T02:26:55;7.3;70.6
78522;SHT31;67819;51.972;5.678;2024-02-26T02:29:24;7.3;70.7
78522;SHT31;67819;51.972;5.678;2024-02-26T02:31:54;7.3;70.5
78522;SHT31;67819;51.972;5.678;2024-02-26T02:34:23;7.3;70.3
78522;SHT31;67819;51.972;5.678;2024-02-26T02:36:54;7.3;70.5
78522;SHT31;67819;51.972;5.678;2024-02-26T02:39:22;7.3;70.4
78522;SHT31;67819;51.972;5.678;2024-02-26T02:41:51;7.3;70.6
78522;SHT31;67819;51.972;5.678;2024-02-26T02:44:20;7.3;70.4
78522;SHT31;67819;51.972;5.678;2024-02-26T02:46:48;7.3;70.7
78522;SHT31;67819;51.972;5.678;2024-02-26T02:49:19;7.3;70.6
78522;SHT31;67819;51.972;5.678;2024-02-26T02:51:50;7.3;70.7
78522;SHT31;67819;51.972;5.678;2024-02-26T02:54:20;7.3;70.7
78522;SHT31;67819;51.972;5.678;2024-02-26T02:56:48;7.3;70.9
78522;SHT31;67819;51.972;5.678;2024-02-26T02:59:17;7.2;71.3
78522;SHT31;67819;51.972;5.678;2024-02-26T03:01:46;7.2;71.4
78522;SHT31;67819;51.972;5.678;2024-02-26T03:04:14;7.2;71.1
78522;SHT31;67819;51.972;5.678;2024-02-26T03:06:45;7.2;71.6
78522;SHT31;67819;51.972;5.678;2024-02-26T03:09:14;7.2;71.5
78522;SHT31;67819;51.972;5.678;2024-02-26T03:11:43;7.1;71.6
78522;SHT31;67819;51.972;5.678;2024-02-26T03:14:11;7.1;71.5
78522;SHT31;67819;51.972;5.678;2024-02-26T03:16:40;7.1;71.2
78522;SHT31;67819;51.972;5.678;2024-02-26T03:19:11;7.1;71.5
78522;SHT31;67819;51.972;5.678;2024-02-26T03:21:42;7.1;71.1
78522;SHT31;67819;51.972;5.678;2024-02-26T03:24:11;7.1;71.4
78522;SHT31;67819;51.972;5.678;2024-02-26T03:26:41;7.1;71.6
78522;SHT31;67819;51.972;5.678;2024-02-26T03:29:11;7.1;71.5
78522;SHT31;67819;51.972;5.678;2024-02-26T03:31:40;7.1;71.2
78522;SHT31;67819;51.972;5.678;2024-02-26T03:34:09;7.1;71.3
78522;SHT31;67819;51.972;5.678;2024-02-26T03:36:39;7.1;71.1
78522;SHT31;67819;51.972;5.678;2024-02-26T03:39:07;7.1;71.0
78522;SHT31;67819;51.972;5.678;2024-02-26T03:41:36;7.1;70.9
78522;SHT31;67819;51.972;5.678;2024-02-26T03:44:05;7.1;71.1
78522;SHT31;67819;51.972;5.678;2024-02-26T03:46:34;7.1;70.7
78522;SHT31;67819;51.972;5.678;2024-02-26T03:49:02;7.1;70.7
78522;SHT31;67819;51.972;5.678;2024-02-26T03:51:31;7.2;70.4
78522;SHT31;67819;51.972;5.678;2024-02-26T03:54:02;7.2;70.3
78522;SHT31;67819;51.972;5.678;2024-02-26T03:56:31;7.2;70.2
78522;SHT31;67819;51.972;5.678;2024-02-26T03:58:59;7.2;70.1
78522;SHT31;67819;51.972;5.678;2024-02-26T04:01:29;7.2;70.3
78522;SHT31;67819;51.972;5.678;2024-02-26T04:03:57;7.2;69.8
78522;SHT31;67819;51.972;5.678;2024-02-26T04:06:26;7.2;70.0
78522;SHT31;67819;51.972;5.678;2024-02-26T04:08:55;7.2;70.0
78522;SHT31;67819;51.972;5.678;2024-02-26T04:11:23;7.2;69.9
78522;SHT31;67819;51.972;5.678;2024-02-26T04:13:52;7.2;70.3
78522;SHT31;67819;51.972;5.678;2024-02-26T04:16:21;7.2;70.7
78522;SHT31;67819;51.972;5.678;2024-02-26T04:18:49;7.1;70.7
78522;SHT31;67819;51.972;5.678;2024-02-26T04:21:20;7.1;71.2
78522;SHT31;67819;51.972;5.678;2024-02-26T04:23:49;7.1;71.2
78522;SHT31;67819;51.972;5.678;2024-02-26T04:26:19;7.1;71.2
78522;SHT31;67819;51.972;5.678;2024-02-26T04:28:48;7.0;71.0
78522;SHT31;67819;51.972;5.678;2024-02-26T04:31:16;7.0;71.5
78522;SHT31;67819;51.972;5.678;2024-02-26T04:33:45;7.0;71.8
78522;SHT31;67819;51.972;5.678;2024-02-26T04:36:15;6.9;72.0
78522;SHT31;67819;51.972;5.678;2024-02-26T04:38:44;6.9;72.1
78522;SHT31;67819;51.972;5.678;2024-02-26T04:41:13;6.9;71.9
78522;SHT31;67819;51.972;5.678;2024-02-26T04:43:41;6.9;72.2
78522;SHT31;67819;51.972;5.678;2024-02-26T04:46:10;6.8;72.5
78522;SHT31;67819;51.972;5.678;2024-02-26T04:48:39;6.8;72.7
78522;SHT31;67819;51.972;5.678;2024-02-26T04:51:08;6.8;73.0
78522;SHT31;67819;51.972;5.678;2024-02-26T04:53:38;6.7;73.1
78522;SHT31;67819;51.972;5.678;2024-02-26T04:56:07;6.7;73.2
78522;SHT31;67819;51.972;5.678;2024-02-26T04:58:36;6.7;73.0
78522;SHT31;67819;51.972;5.678;2024-02-26T05:01:06;6.6;73.1
78522;SHT31;67819;51.972;5.678;2024-02-26T05:03:36;6.6;73.5
78522;SHT31;67819;51.972;5.678;2024-02-26T05:06:05;6.6;73.8
78522;SHT31;67819;51.972;5.678;2024-02-26T05:08:35;6.6;74.1
78522;SHT31;67819;51.972;5.678;2024-02-26T05:11:05;6.6;74.4
78522;SHT31;67819;51.972;5.678;2024-02-26T05:13:34;6.6;74.3
78522;SHT31;67819;51.972;5.678;2024-02-26T05:16:02;6.6;74.4
78522;SHT31;67819;51.972;5.678;2024-02-26T05:18:31;6.6;74.6
78522;SHT31;67819;51.972;5.678;2024-02-26T05:21:00;6.6;74.5
78522;SHT31;67819;51.972;5.678;2024-02-26T05:23:30;6.5;74.8
78522;SHT31;67819;51.972;5.678;2024-02-26T05:25:58;6.5;75.0
78522;SHT31;67819;51.972;5.678;2024-02-26T05:28:27;6.5;74.7
78522;SHT31;67819;51.972;5.678;2024-02-26T05:30:58;6.5;75.1
78522;SHT31;67819;51.972;5.678;2024-02-26T05:33:27;6.5;75.2
78522;SHT31;67819;51.972;5.678;2024-02-26T05:35:55;6.5;75.4
78522;SHT31;67819;51.972;5.678;2024-02-26T05:38:29;6.5;75.5
78522;SHT31;67819;51.972;5.678;2024-02-26T05:40:58;6.5;76.0
78522;SHT31;67819;51.972;5.678;2024-02-26T05:43:27;6.5;76.0
78522;SHT31;67819;51.972;5.678;2024-02-26T05:45:55;6.4;75.9
78522;SHT31;67819;51.972;5.678;2024-02-26T05:48:24;6.4;76.2
78522;SHT31;67819;51.972;5.678;2024-02-26T05:50:55;6.4;76.1
78522;SHT31;67819;51.972;5.678;2024-02-26T05:53:23;6.4;76.4
78522;SHT31;67819;51.972;5.678;2024-02-26T05:55:52;6.3;76.6
78522;SHT31;67819;51.972;5.678;2024-02-26T05:58:20;6.3;76.6
78522;SHT31;67819;51.972;5.678;2024-02-26T06:00:49;6.3;77.1
78522;SHT31;67819;51.972;5.678;2024-02-26T06:03:17;6.2;76.6
78522;SHT31;67819;51.972;5.678;2024-02-26T06:05:46;6.2;76.9
78522;SHT31;67819;51.972;5.678;2024-02-26T06:08:15;6.2;77.3
78522;SHT31;67819;51.972;5.678;2024-02-26T06:10:43;6.2;77.7
78522;SHT31;67819;51.972;5.678;2024-02-26T06:13:12;6.1;77.9
78522;SHT31;67819;51.972;5.678;2024-02-26T06:15:41;6.1;77.8
78522;SHT31;67819;51.972;5.678;2024-02-26T06:18:09;6.1;77.6
78522;SHT31;67819;51.972;5.678;2024-02-26T06:20:38;6.1;77.7
78522;SHT31;67819;51.972;5.678;2024-02-26T06:23:07;6.1;77.8
78522;SHT31;67819;51.972;5.678;2024-02-26T06:25:36;6.1;77.9
78522;SHT31;67819;51.972;5.678;2024-02-26T06:28:05;6.1;77.9
78522;SHT31;67819;51.972;5.678;2024-02-26T06:30:34;6.1;77.9
78522;SHT31;67819;51.972;5.678;2024-02-26T06:33:03;6.1;78.2
78522;SHT31;67819;51.972;5.678;2024-02-26T06:35:32;6.1;77.7
78522;SHT31;67819;51.972;5.678;2024-02-26T06:38:00;6.1;77.8
78522;SHT31;67819;51.972;5.678;2024-02-26T06:40:29;6.1;78.0
78522;SHT31;67819;51.972;5.678;2024-02-26T06:42:58;6.1;77.8
78522;SHT31;67819;51.972;5.678;2024-02-26T06:45:26;6.1;78.4
78522;SHT31;67819;51.972;5.678;2024-02-26T06:47:55;6.1;78.4
78522;SHT31;67819;51.972;5.678;2024-02-26T06:50:24;6.1;78.3
78522;SHT31;67819;51.972;5.678;2024-02-26T06:52:52;6.1;78.3
78522;SHT31;67819;51.972;5.678;2024-02-26T06:55:21;6.1;78.1
78522;SHT31;67819;51.972;5.678;2024-02-26T06:57:50;6.1;78.4
78522;SHT31;67819;51.972;5.678;2024-02-26T07:00:19;6.1;78.4
78522;SHT31;67819;51.972;5.678;2024-02-26T07:02:48;6.1;78.5
78522;SHT31;67819;51.972;5.678;2024-02-26T07:05:17;6.1;78.7
78522;SHT31;67819;51.972;5.678;2024-02-26T07:07:45;6.1;78.7
78522;SHT31;67819;51.972;5.678;2024-02-26T07:10:14;6.1;78.8
78522;SHT31;67819;51.972;5.678;2024-02-26T07:12:44;6.1;78.9
78522;SHT31;67819;51.972;5.678;2024-02-26T07:15:13;6.1;79.0
78522;SHT31;67819;51.972;5.678;2024-02-26T07:17:42;6.1;78.8
78522;SHT31;67819;51.972;5.678;2024-02-26T07:20:14;6.1;78.8
78522;SHT31;67819;51.972;5.678;2024-02-26T07:22:44;6.1;79.1
78522;SHT31;67819;51.972;5.678;2024-02-26T07:25:13;6.1;79.2
78522;SHT31;67819;51.972;5.678;2024-02-26T07:27:42;6.1;79.6
78522;SHT31;67819;51.972;5.678;2024-02-26T07:30:12;6.1;80.0
78522;SHT31;67819;51.972;5.678;2024-02-26T07:32:42;6.1;79.9
78522;SHT31;67819;51.972;5.678;2024-02-26T07:35:11;6.1;80.1
78522;SHT31;67819;51.972;5.678;2024-02-26T07:37:39;6.0;80.3
78522;SHT31;67819;51.972;5.678;2024-02-26T07:40:08;6.0;80.5
78522;SHT31;67819;51.972;5.678;2024-02-26T07:42:37;6.0;80.8
78522;SHT31;67819;51.972;5.678;2024-02-26T07:45:07;6.0;80.8
78522;SHT31;67819;51.972;5.678;2024-02-26T07:47:35;6.0;81.3
78522;SHT31;67819;51.972;5.678;2024-02-26T07:50:08;5.9;81.4
78522;SHT31;67819;51.972;5.678;2024-02-26T07:52:38;5.9;81.7
78522;SHT31;67819;51.972;5.678;2024-02-26T07:55:08;5.9;81.8
78522;SHT31;67819;51.972;5.678;2024-02-26T07:57:36;5.9;82.0
78522;SHT31;67819;51.972;5.678;2024-02-26T08:00:06;5.9;82.3
78522;SHT31;67819;51.972;5.678;2024-02-26T08:02:35;5.9;82.5
78522;SHT31;67819;51.972;5.678;2024-02-26T08:05:04;5.9;82.6
78522;SHT31;67819;51.972;5.678;2024-02-26T08:07:33;5.9;82.7
78522;SHT31;67819;51.972;5.678;2024-02-26T08:10:02;5.9;82.8
78522;SHT31;67819;51.972;5.678;2024-02-26T08:12:30;5.9;82.5
78522;SHT31;67819;51.972;5.678;2024-02-26T08:14:59;5.9;82.5
78522;SHT31;67819;51.972;5.678;2024-02-26T08:17:28;6.0;82.3
78522;SHT31;67819;51.972;5.678;2024-02-26T08:19:59;6.0;82.4
78522;SHT31;67819;51.972;5.678;2024-02-26T08:22:28;6.0;82.7
78522;SHT31;67819;51.972;5.678;2024-02-26T08:24:59;6.0;82.3
78522;SHT31;67819;51.972;5.678;2024-02-26T08:27:32;6.0;82.3
78522;SHT31;67819;51.972;5.678;2024-02-26T08:30:00;6.0;82.3
78522;SHT31;67819;51.972;5.678;2024-02-26T08:32:29;6.0;83.0
78522;SHT31;67819;51.972;5.678;2024-02-26T08:34:58;6.0;83.2
78522;SHT31;67819;51.972;5.678;2024-02-26T08:37:27;6.0;82.9
78522;SHT31;67819;51.972;5.678;2024-02-26T08:39:56;6.0;82.9
78522;SHT31;67819;51.972;5.678;2024-02-26T08:42:24;6.0;82.8
78522;SHT31;67819;51.972;5.678;2024-02-26T08:44:53;6.0;82.9
78522;SHT31;67819;51.972;5.678;2024-02-26T08:47:22;6.0;82.9
78522;SHT31;67819;51.972;5.678;2024-02-26T08:49:51;6.0;82.9
78522;SHT31;67819;51.972;5.678;2024-02-26T08:52:19;6.0;83.1
78522;SHT31;67819;51.972;5.678;2024-02-26T08:54:49;6.0;83.2
78522;SHT31;67819;51.972;5.678;2024-02-26T08:57:18;6.0;83.4
78522;SHT31;67819;51.972;5.678;2024-02-26T08:59:46;6.0;83.1
78522;SHT31;67819;51.972;5.678;2024-02-26T09:02:16;6.0;83.2
78522;SHT31;67819;51.972;5.678;2024-02-26T09:04:46;6.0;83.7
78522;SHT31;67819;51.972;5.678;2024-02-26T09:07:14;6.0;83.2
78522;SHT31;67819;51.972;5.678;2024-02-26T09:09:43;6.0;83.6
78522;SHT31;67819;51.972;5.678;2024-02-26T09:12:13;6.0;83.8
78522;SHT31;67819;51.972;5.678;2024-02-26T09:14:42;6.0;83.6
78522;SHT31;67819;51.972;5.678;2024-02-26T09:17:11;6.0;83.5
78522;SHT31;67819;51.972;5.678;2024-02-26T09:19:39;6.0;84.0
78522;SHT31;67819;51.972;5.678;2024-02-26T09:22:08;6.0;84.2
78522;SHT31;67819;51.972;5.678;2024-02-26T09:24:38;6.0;84.2
78522;SHT31;67819;51.972;5.678;2024-02-26T09:27:06;6.0;84.0
78522;SHT31;67819;51.972;5.678;2024-02-26T09:29:35;6.0;84.1
78522;SHT31;67819;51.972;5.678;2024-02-26T09:32:06;6.0;84.2
78522;SHT31;67819;51.972;5.678;2024-02-26T09:34:35;6.1;83.9
78522;SHT31;67819;51.972;5.678;2024-02-26T09:37:04;6.1;84.0
78522;SHT31;67819;51.972;5.678;2024-02-26T09:39:32;6.1;84.1
78522;SHT31;67819;51.972;5.678;2024-02-26T09:42:04;6.1;84.0
78522;SHT31;67819;51.972;5.678;2024-02-26T09:44:36;6.1;84.2
78522;SHT31;67819;51.972;5.678;2024-02-26T09:47:10;6.1;84.5
78522;SHT31;67819;51.972;5.678;2024-02-26T09:49:42;6.1;84.1
78522;SHT31;67819;51.972;5.678;2024-02-26T09:52:12;6.1;84.0
78522;SHT31;67819;51.972;5.678;2024-02-26T09:54:47;6.1;84.1
78522;SHT31;67819;51.972;5.678;2024-02-26T09:57:18;6.1;83.7
78522;SHT31;67819;51.972;5.678;2024-02-26T09:59:55;6.1;83.7
78522;SHT31;67819;51.972;5.678;2024-02-26T10:02:28;6.1;84.1
78522;SHT31;67819;51.972;5.678;2024-02-26T10:04:59;6.1;83.4
78522;SHT31;67819;51.972;5.678;2024-02-26T10:07:31;6.0;84.1
78522;SHT31;67819;51.972;5.678;2024-02-26T10:10:01;6.0;84.5
78522;SHT31;67819;51.972;5.678;2024-02-26T10:12:32;6.0;84.6
78522;SHT31;67819;51.972;5.678;2024-02-26T10:15:01;6.0;84.2
78522;SHT31;67819;51.972;5.678;2024-02-26T10:17:30;6.0;83.5
78522;SHT31;67819;51.972;5.678;2024-02-26T10:20:10;6.0;84.1
78522;SHT31;67819;51.972;5.678;2024-02-26T10:22:39;6.0;84.4
78522;SHT31;67819;51.972;5.678;2024-02-26T10:25:08;6.0;84.4
78522;SHT31;67819;51.972;5.678;2024-02-26T10:27:37;6.0;84.2
78522;SHT31;67819;51.972;5.678;2024-02-26T10:30:20;6.0;84.3
78522;SHT31;67819;51.972;5.678;2024-02-26T10:32:49;6.0;84.5
78522;SHT31;67819;51.972;5.678;2024-02-26T10:35:19;6.0;84.4
78522;SHT31;67819;51.972;5.678;2024-02-26T10:37:49;6.0;84.7
78522;SHT31;67819;51.972;5.678;2024-02-26T10:40:19;6.0;85.0
78522;SHT31;67819;51.972;5.678;2024-02-26T10:42:47;6.0;84.7
78522;SHT31;67819;51.972;5.678;2024-02-26T10:45:16;6.1;84.2
78522;SHT31;67819;51.972;5.678;2024-02-26T10:47:45;6.1;84.5
78522;SHT31;67819;51.972;5.678;2024-02-26T10:50:14;6.1;84.3
78522;SHT31;67819;51.972;5.678;2024-02-26T10:52:43;6.1;84.4
78522;SHT31;67819;51.972;5.678;2024-02-26T10:55:15;6.1;84.0
78522;SHT31;67819;51.972;5.678;2024-02-26T10:57:46;6.1;83.9
78522;SHT31;67819;51.972;5.678;2024-02-26T11:00:16;6.1;84.5
78522;SHT31;67819;51.972;5.678;2024-02-26T11:02:46;6.1;85.1
78522;SHT31;67819;51.972;5.678;2024-02-26T11:05:19;6.1;84.9
78522;SHT31;67819;51.972;5.678;2024-02-26T11:07:50;6.1;84.4
78522;SHT31;67819;51.972;5.678;2024-02-26T11:10:21;6.2;84.4
78522;SHT31;67819;51.972;5.678;2024-02-26T11:12:54;6.2;84.4
78522;SHT31;67819;51.972;5.678;2024-02-26T11:15:24;6.2;84.3
78522;SHT31;67819;51.972;5.678;2024-02-26T11:17:58;6.2;84.3
78522;SHT31;67819;51.972;5.678;2024-02-26T11:20:28;6.2;84.0
78522;SHT31;67819;51.972;5.678;2024-02-26T11:22:57;6.2;84.3
78522;SHT31;67819;51.972;5.678;2024-02-26T11:25:26;6.2;84.4
78522;SHT31;67819;51.972;5.678;2024-02-26T11:27:58;6.2;84.4
78522;SHT31;67819;51.972;5.678;2024-02-26T11:30:32;6.2;84.2
78522;SHT31;67819;51.972;5.678;2024-02-26T11:33:06;6.2;84.2
78522;SHT31;67819;51.972;5.678;2024-02-26T11:35:36;6.2;84.4
78522;SHT31;67819;51.972;5.678;2024-02-26T11:38:06;6.2;83.8
78522;SHT31;67819;51.972;5.678;2024-02-26T11:40:38;6.2;84.1
78522;SHT31;67819;51.972;5.678;2024-02-26T11:43:08;6.2;84.6
78522;SHT31;67819;51.972;5.678;2024-02-26T11:45:55;6.2;84.7
78522;SHT31;67819;51.972;5.678;2024-02-26T11:48:28;6.2;84.8
78522;SHT31;67819;51.972;5.678;2024-02-26T11:50:58;6.2;84.8
78522;SHT31;67819;51.972;5.678;2024-02-26T11:53:28;6.2;84.3
78522;SHT31;67819;51.972;5.678;2024-02-26T11:56:20;6.2;84.6
78522;SHT31;67819;51.972;5.678;2024-02-26T11:58:53;6.2;84.8
78522;SHT31;67819;51.972;5.678;2024-02-26T12:01:45;6.2;84.7
78522;SHT31;67819;51.972;5.678;2024-02-26T12:04:16;6.3;84.4
78522;SHT31;67819;51.972;5.678;2024-02-26T12:06:47;6.2;84.4
78522;SHT31;67819;51.972;5.678;2024-02-26T12:09:33;6.2;84.6
78522;SHT31;67819;51.972;5.678;2024-02-26T12:12:04;6.3;84.4
78522;SHT31;67819;51.972;5.678;2024-02-26T12:14:38;6.3;84.2
78522;SHT31;67819;51.972;5.678;2024-02-26T12:17:18;6.2;84.3
78522;SHT31;67819;51.972;5.678;2024-02-26T12:19:47;6.2;84.3
78522;SHT31;67819;51.972;5.678;2024-02-26T12:22:16;6.2;84.6
78522;SHT31;67819;51.972;5.678;2024-02-26T12:24:46;6.2;85.3
78522;SHT31;67819;51.972;5.678;2024-02-26T12:27:14;6.3;85.0
78522;SHT31;67819;51.972;5.678;2024-02-26T12:29:43;6.3;84.7
78522;SHT31;67819;51.972;5.678;2024-02-26T12:32:14;6.3;83.9
78522;SHT31;67819;51.972;5.678;2024-02-26T12:34:43;6.3;84.4
78522;SHT31;67819;51.972;5.678;2024-02-26T12:37:12;6.3;84.5
78522;SHT31;67819;51.972;5.678;2024-02-26T12:39:42;6.3;84.1
78522;SHT31;67819;51.972;5.678;2024-02-26T12:42:12;6.3;84.4
78522;SHT31;67819;51.972;5.678;2024-02-26T12:44:44;6.3;83.8
78522;SHT31;67819;51.972;5.678;2024-02-26T12:47:13;6.3;84.0
78522;SHT31;67819;51.972;5.678;2024-02-26T12:49:43;6.3;84.5
78522;SHT31;67819;51.972;5.678;2024-02-26T12:52:15;6.3;84.1
78522;SHT31;67819;51.972;5.678;2024-02-26T12:54:45;6.3;84.1
78522;SHT31;67819;51.972;5.678;2024-02-26T12:57:14;6.3;84.6
78522;SHT31;67819;51.972;5.678;2024-02-26T12:59:43;6.4;84.0
78522;SHT31;67819;51.972;5.678;2024-02-26T13:02:11;6.4;84.3
78522;SHT31;67819;51.972;5.678;2024-02-26T13:04:40;6.4;85.0
78522;SHT31;67819;51.972;5.678;2024-02-26T13:07:10;6.4;83.9
78522;SHT31;67819;51.972;5.678;2024-02-26T13:09:39;6.4;84.5
78522;SHT31;67819;51.972;5.678;2024-02-26T13:12:09;6.5;84.1
78522;SHT31;67819;51.972;5.678;2024-02-26T13:14:38;6.5;83.3
78522;SHT31;67819;51.972;5.678;2024-02-26T13:17:06;6.5;83.8
78522;SHT31;67819;51.972;5.678;2024-02-26T13:19:35;6.5;83.5
78522;SHT31;67819;51.972;5.678;2024-02-26T13:22:07;6.5;83.9
78522;SHT31;67819;51.972;5.678;2024-02-26T13:24:36;6.5;83.3
78522;SHT31;67819;51.972;5.678;2024-02-26T13:27:05;6.5;83.3
78522;SHT31;67819;51.972;5.678;2024-02-26T13:29:33;6.5;83.5
78522;SHT31;67819;51.972;5.678;2024-02-26T13:32:03;6.5;83.7
78522;SHT31;67819;51.972;5.678;2024-02-26T13:34:33;6.5;83.4
78522;SHT31;67819;51.972;5.678;2024-02-26T13:37:03;6.5;83.6
78522;SHT31;67819;51.972;5.678;2024-02-26T13:39:32;6.5;84.3
78522;SHT31;67819;51.972;5.678;2024-02-26T13:42:03;6.5;83.4
78522;SHT31;67819;51.972;5.678;2024-02-26T13:44:31;6.5;83.5
78522;SHT31;67819;51.972;5.678;2024-02-26T13:47:03;6.5;83.7
78522;SHT31;67819;51.972;5.678;2024-02-26T13:49:32;6.5;84.3
78522;SHT31;67819;51.972;5.678;2024-02-26T13:52:00;6.6;84.3
78522;SHT31;67819;51.972;5.678;2024-02-26T13:54:29;6.6;84.2
78522;SHT31;67819;51.972;5.678;2024-02-26T13:56:57;6.6;84.3
78522;SHT31;67819;51.972;5.678;2024-02-26T13:59:26;6.6;83.7
78522;SHT31;67819;51.972;5.678;2024-02-26T14:01:55;6.7;83.4
78522;SHT31;67819;51.972;5.678;2024-02-26T14:04:23;6.7;83.2
78522;SHT31;67819;51.972;5.678;2024-02-26T14:06:52;6.7;82.6
78522;SHT31;67819;51.972;5.678;2024-02-26T14:09:20;6.7;83.2
78522;SHT31;67819;51.972;5.678;2024-02-26T14:11:49;6.7;83.7
78522;SHT31;67819;51.972;5.678;2024-02-26T14:14:18;6.7;83.2
78522;SHT31;67819;51.972;5.678;2024-02-26T14:16:46;6.8;82.7
78522;SHT31;67819;51.972;5.678;2024-02-26T14:19:15;6.8;82.8
78522;SHT31;67819;51.972;5.678;2024-02-26T14:21:44;6.8;82.2
78522;SHT31;67819;51.972;5.678;2024-02-26T14:24:14;6.8;82.3
78522;SHT31;67819;51.972;5.678;2024-02-26T14:26:43;6.8;82.1
78522;SHT31;67819;51.972;5.678;2024-02-26T14:29:12;6.8;82.4
78522;SHT31;67819;51.972;5.678;2024-02-26T14:31:42;6.8;81.9
78522;SHT31;67819;51.972;5.678;2024-02-26T14:34:11;6.9;82.1
78522;SHT31;67819;51.972;5.678;2024-02-26T14:36:41;6.9;81.3
78522;SHT31;67819;51.972;5.678;2024-02-26T14:39:09;6.9;80.8
78522;SHT31;67819;51.972;5.678;2024-02-26T14:41:39;6.9;81.2
78522;SHT31;67819;51.972;5.678;2024-02-26T14:44:08;6.9;81.4
78522;SHT31;67819;51.972;5.678;2024-02-26T14:46:38;7.0;80.8
78522;SHT31;67819;51.972;5.678;2024-02-26T14:49:06;7.0;80.8
78522;SHT31;67819;51.972;5.678;2024-02-26T14:51:35;7.1;80.5
78522;SHT31;67819;51.972;5.678;2024-02-26T14:54:04;7.1;80.8
78522;SHT31;67819;51.972;5.678;2024-02-26T14:56:33;7.2;80.2
78522;SHT31;67819;51.972;5.678;2024-02-26T14:59:01;7.2;79.7
78522;SHT31;67819;51.972;5.678;2024-02-26T15:01:30;7.3;79.5
78522;SHT31;67819;51.972;5.678;2024-02-26T15:03:59;7.3;79.3
78522;SHT31;67819;51.972;5.678;2024-02-26T15:06:29;7.4;79.3
78522;SHT31;67819;51.972;5.678;2024-02-26T15:08:58;7.4;78.5
78522;SHT31;67819;51.972;5.678;2024-02-26T15:11:26;7.5;77.9
78522;SHT31;67819;51.972;5.678;2024-02-26T15:13:57;7.5;78.1
78522;SHT31;67819;51.972;5.678;2024-02-26T15:16:26;7.5;77.3
78522;SHT31;67819;51.972;5.678;2024-02-26T15:18:55;7.5;77.8
78522;SHT31;67819;51.972;5.678;2024-02-26T15:21:23;7.6;77.4
78522;SHT31;67819;51.972;5.678;2024-02-26T15:23:52;7.6;77.7
78522;SHT31;67819;51.972;5.678;2024-02-26T15:26:21;7.6;76.6
78522;SHT31;67819;51.972;5.678;2024-02-26T15:28:51;7.6;76.9
78522;SHT31;67819;51.972;5.678;2024-02-26T15:31:20;7.6;76.3
78522;SHT31;67819;51.972;5.678;2024-02-26T15:33:48;7.6;75.8
78522;SHT31;67819;51.972;5.678;2024-02-26T15:36:17;7.6;75.9
78522;SHT31;67819;51.972;5.678;2024-02-26T15:38:45;7.6;76.9
78522;SHT31;67819;51.972;5.678;2024-02-26T15:41:14;7.6;76.6
78522;SHT31;67819;51.972;5.678;2024-02-26T15:43:43;7.6;76.5
78522;SHT31;67819;51.972;5.678;2024-02-26T15:46:12;7.6;75.9
78522;SHT31;67819;51.972;5.678;2024-02-26T15:48:40;7.5;76.6
78522;SHT31;67819;51.972;5.678;2024-02-26T15:51:22;7.5;76.7
78522;SHT31;67819;51.972;5.678;2024-02-26T15:53:52;7.5;76.3
78522;SHT31;67819;51.972;5.678;2024-02-26T15:56:24;7.5;76.6
78522;SHT31;67819;51.972;5.678;2024-02-26T15:58:53;7.4;76.9
78522;SHT31;67819;51.972;5.678;2024-02-26T16:01:22;7.4;77.0
78522;SHT31;67819;51.972;5.678;2024-02-26T16:03:51;7.4;76.8
78522;SHT31;67819;51.972;5.678;2024-02-26T16:06:25;7.4;76.6
78522;SHT31;67819;51.972;5.678;2024-02-26T16:08:55;7.4;76.8
78522;SHT31;67819;51.972;5.678;2024-02-26T16:11:23;7.4;76.3
78522;SHT31;67819;51.972;5.678;2024-02-26T16:14:00;7.4;76.4
78522;SHT31;67819;51.972;5.678;2024-02-26T16:16:32;7.4;76.1
78522;SHT31;67819;51.972;5.678;2024-02-26T16:19:06;7.4;75.6
78522;SHT31;67819;51.972;5.678;2024-02-26T16:21:38;7.4;76.1
78522;SHT31;67819;51.972;5.678;2024-02-26T16:24:07;7.4;75.6
78522;SHT31;67819;51.972;5.678;2024-02-26T16:26:36;7.4;75.5
78522;SHT31;67819;51.972;5.678;2024-02-26T16:29:05;7.4;75.4
78522;SHT31;67819;51.972;5.678;2024-02-26T16:31:33;7.4;75.5